createdAt,value
2022-08-12T00:00:10.534Z,2.88
2022-08-12T00:02:57.018Z,3.35
2022-08-12T00:06:04.832Z,3.15
2022-08-12T00:08:55.283Z,3.42
2022-08-12T00:11:41.965Z,2.83
2022-08-12T00:14:28.750Z,2.78
2022-08-12T00:17:15.037Z,3.05
2022-08-12T00:20:01.642Z,2.92
2022-08-12T00:22:58.825Z,2.85
2022-08-12T00:26:21.074Z,3.08
2022-08-12T00:29:02.356Z,2.72
2022-08-12T00:31:48.591Z,2.75
2022-08-12T00:34:35.729Z,2.63
2022-08-12T00:37:21.950Z,2.58
2022-08-12T00:40:11.044Z,2.60
2022-08-12T00:42:42.971Z,2.40
2022-08-12T00:45:11.164Z,2.67
2022-08-12T00:47:39.265Z,2.80
2022-08-12T00:50:07.577Z,3.10
2022-08-12T00:52:35.872Z,2.38
2022-08-12T00:55:05.484Z,2.70
2022-08-12T00:57:37.401Z,2.83
2022-08-12T01:00:10.275Z,3.45
2022-08-12T01:02:40.493Z,2.78
2022-08-12T01:05:27.409Z,2.50
2022-08-12T01:08:14.112Z,2.90
2022-08-12T01:11:01.345Z,2.80
2022-08-12T01:13:30.062Z,2.35
2022-08-12T01:15:59.084Z,2.45
2022-08-12T01:18:30.188Z,2.67
2022-08-12T01:21:00.945Z,2.72
2022-08-12T01:23:46.831Z,2.65
2022-08-12T01:26:23.340Z,2.65
2022-08-12T01:28:53.325Z,3.47
2022-08-12T01:31:21.593Z,3.22
2022-08-12T01:34:06.403Z,2.42
2022-08-12T01:36:57.572Z,2.95
2022-08-12T01:39:33.627Z,2.97
2022-08-12T01:42:03.887Z,2.35
2022-08-12T01:44:32.062Z,3.13
2022-08-12T01:47:06.050Z,2.67
2022-08-12T01:49:50.110Z,3.10
2022-08-12T01:52:28.011Z,3.30
2022-08-12T01:54:58.640Z,2.97
2022-08-12T01:57:58.564Z,2.88
2022-08-12T02:00:35.873Z,3.30
2022-08-12T02:03:55.609Z,3.08
2022-08-12T02:06:44.941Z,2.63
2022-08-12T02:09:33.558Z,2.63
2022-08-12T02:12:27.750Z,3.15
2022-08-12T02:15:04.633Z,2.80
2022-08-12T02:17:55.819Z,3.05
2022-08-12T02:20:52.060Z,3.10
2022-08-12T02:23:26.843Z,3.05
2022-08-12T02:25:57.001Z,3.00
2022-08-12T02:28:25.043Z,2.80
2022-08-12T02:30:52.916Z,2.75
2022-08-12T02:33:21.202Z,2.88
2022-08-12T02:35:51.500Z,2.88
2022-08-12T02:38:21.682Z,2.95
2022-08-12T02:40:52.568Z,2.90
2022-08-12T02:43:28.685Z,2.63
2022-08-12T02:45:58.211Z,2.97
2022-08-12T02:48:30.272Z,3.22
2022-08-12T02:51:04.229Z,2.97
2022-08-12T02:53:34.287Z,3.17
2022-08-12T02:56:05.594Z,3.50
2022-08-12T02:58:35.433Z,3.20
2022-08-12T03:01:04.461Z,3.33
2022-08-12T03:03:33.729Z,3.25
2022-08-12T03:06:03.354Z,3.42
2022-08-12T03:08:33.284Z,2.55
2022-08-12T03:11:04.610Z,2.85
2022-08-12T03:13:35.615Z,3.45
2022-08-12T03:16:03.247Z,3.10
2022-08-12T03:18:32.150Z,3.40
2022-08-12T03:21:01.048Z,3.30
2022-08-12T03:23:31.109Z,2.80
2022-08-12T03:26:03.148Z,2.88
2022-08-12T03:28:53.929Z,2.95
2022-08-12T03:31:24.570Z,3.13
2022-08-12T03:34:00.761Z,3.10
2022-08-12T03:36:35.215Z,2.60
2022-08-12T03:39:18.722Z,2.95
2022-08-12T03:41:59.390Z,2.20
2022-08-12T03:44:57.913Z,2.78
2022-08-12T03:47:44.149Z,2.97
2022-08-12T03:50:30.828Z,2.88
2022-08-12T03:53:17.508Z,2.90
2022-08-12T03:56:03.735Z,2.90
2022-08-12T03:58:50.005Z,3.17
2022-08-12T04:01:18.308Z,3.08
2022-08-12T04:03:52.350Z,2.42
2022-08-12T04:06:34.533Z,2.92
2022-08-12T04:09:14.686Z,3.05
2022-08-12T04:12:02.137Z,3.00
2022-08-12T04:14:29.738Z,2.80
2022-08-12T04:16:57.694Z,2.90
2022-08-12T04:19:26.233Z,3.10
2022-08-12T04:22:01.239Z,2.65
2022-08-12T04:24:30.391Z,2.85
2022-08-12T04:26:58.006Z,2.90
2022-08-12T04:30:17.722Z,3.13
2022-08-12T04:32:15.711Z,3.00
2022-08-12T04:34:44.516Z,3.78
2022-08-12T04:37:13.263Z,3.47
2022-08-12T04:39:41.016Z,3.33
2022-08-12T04:42:08.701Z,3.28
2022-08-12T04:44:36.359Z,3.50
2022-08-12T04:47:04.193Z,2.90
2022-08-12T04:49:32.637Z,2.90
2022-08-12T04:52:00.669Z,2.90
2022-08-12T04:54:28.541Z,3.30
2022-08-12T04:57:04.815Z,3.30
2022-08-12T04:59:48.300Z,3.78
2022-08-12T05:02:21.317Z,2.97
2022-08-12T05:04:55.739Z,3.03
2022-08-12T05:07:24.112Z,2.92
2022-08-12T05:09:58.829Z,2.80
2022-08-12T05:12:40.265Z,3.00
2022-08-12T05:15:19.734Z,2.60
2022-08-12T05:17:56.275Z,2.97
2022-08-12T05:20:27.963Z,2.90
2022-08-12T05:23:13.351Z,3.13
2022-08-12T05:25:43.165Z,2.80
2022-08-12T05:28:12.394Z,2.58
2022-08-12T05:30:41.387Z,3.30
2022-08-12T05:33:09.387Z,3.60
2022-08-12T05:35:44.701Z,3.05
2022-08-12T05:38:35.322Z,2.97
2022-08-12T05:41:03.920Z,2.90
2022-08-12T05:43:33.556Z,3.03
2022-08-12T05:46:01.241Z,3.38
2022-08-12T05:48:30.786Z,3.20
2022-08-12T05:50:58.473Z,3.03
2022-08-12T05:53:26.540Z,2.70
2022-08-12T05:55:54.828Z,2.95
2022-08-12T05:58:22.461Z,3.40
2022-08-12T06:00:50.073Z,3.03
2022-08-12T06:03:19.657Z,3.50
2022-08-12T06:05:55.232Z,3.33
2022-08-12T06:08:24.346Z,3.00
2022-08-12T06:10:52.284Z,2.97
2022-08-12T06:13:27.883Z,2.67
2022-08-12T06:15:56.847Z,3.28
2022-08-12T06:18:29.637Z,2.90
2022-08-12T06:21:02.004Z,3.15
2022-08-12T06:23:30.756Z,3.03
2022-08-12T06:25:59.150Z,2.83
2022-08-12T06:28:30.477Z,3.17
2022-08-12T06:31:24.327Z,2.90
2022-08-12T06:33:55.225Z,3.20
2022-08-12T06:36:29.862Z,2.80
2022-08-12T06:39:00.251Z,2.55
2022-08-12T06:42:22.672Z,2.88
2022-08-12T06:44:34.104Z,2.25
2022-08-12T06:47:01.778Z,2.47
2022-08-12T06:49:34.752Z,2.65
2022-08-12T06:52:04.423Z,2.28
2022-08-12T06:54:33.276Z,2.53
2022-08-12T06:57:04.952Z,2.70
2022-08-12T06:59:35.557Z,2.20
2022-08-12T07:02:03.231Z,2.38
2022-08-12T07:04:37.508Z,2.30
2022-08-12T07:07:10.004Z,2.40
2022-08-12T07:10:06.653Z,2.42
2022-08-12T07:12:28.064Z,2.35
2022-08-12T07:15:01.781Z,1.90
2022-08-12T07:17:36.404Z,2.13
2022-08-12T07:20:35.679Z,2.38
2022-08-12T07:23:01.243Z,2.75
2022-08-12T07:25:41.006Z,2.20
2022-08-12T07:28:19.944Z,2.00
2022-08-12T07:30:49.259Z,2.55
2022-08-12T07:33:17.689Z,2.40
2022-08-12T07:35:48.186Z,2.10
2022-08-12T07:38:29.305Z,2.17
2022-08-12T07:41:06.504Z,2.28
2022-08-12T07:43:36.540Z,2.50
2022-08-12T07:46:07.963Z,2.45
2022-08-12T07:48:36.961Z,3.15
2022-08-12T07:51:04.814Z,2.30
2022-08-12T07:53:32.433Z,2.10
2022-08-12T07:56:00.074Z,2.63
2022-08-12T07:58:27.818Z,1.90
2022-08-12T08:00:57.678Z,2.28
2022-08-12T08:03:25.890Z,2.10
2022-08-12T08:05:53.876Z,1.88
2022-08-12T08:08:25.399Z,2.15
2022-08-12T08:11:15.320Z,2.47
2022-08-12T08:13:43.310Z,2.50
2022-08-12T08:16:11.007Z,2.15
2022-08-12T08:18:38.665Z,2.00
2022-08-12T08:21:06.445Z,2.15
2022-08-12T08:23:56.354Z,2.42
2022-08-12T08:26:26.963Z,2.20
2022-08-12T08:28:54.719Z,2.05
2022-08-12T08:31:22.471Z,2.45
2022-08-12T08:34:04.812Z,2.00
2022-08-12T08:36:39.408Z,2.10
2022-08-12T08:39:08.014Z,1.98
2022-08-12T08:42:16.662Z,1.80
2022-08-12T08:44:42.538Z,2.00
2022-08-12T08:47:11.723Z,2.15
2022-08-12T08:49:40.228Z,2.58
2022-08-12T08:52:08.920Z,1.67
2022-08-12T08:54:37.715Z,1.73
2022-08-12T08:57:07.986Z,2.05
2022-08-12T08:59:35.802Z,2.10
2022-08-12T09:02:03.606Z,1.80
2022-08-12T09:05:12.373Z,1.85
2022-08-12T09:07:51.842Z,1.55
2022-08-12T09:10:09.310Z,1.80
2022-08-12T09:13:19.297Z,2.00
2022-08-12T09:15:57.755Z,1.85
2022-08-12T09:18:33.272Z,2.22
2022-08-12T09:21:02.030Z,1.90
2022-08-12T09:23:58.357Z,2.17
2022-08-12T09:26:19.676Z,2.03
2022-08-12T09:32:06.549Z,1.95
2022-08-12T09:34:26.291Z,2.20
2022-08-12T09:37:02.418Z,1.73
2022-08-12T09:40:02.062Z,2.42
2022-08-12T09:43:17.053Z,1.95
2022-08-12T09:46:06.150Z,1.92
2022-08-12T09:48:35.047Z,2.17
2022-08-12T09:51:17.163Z,1.83
2022-08-12T09:54:08.441Z,2.20
2022-08-12T09:56:58.851Z,2.22
2022-08-12T10:00:17.147Z,1.98
2022-08-12T10:02:44.670Z,2.30
2022-08-12T10:05:02.198Z,2.05
2022-08-12T10:07:39.965Z,2.30
2022-08-12T10:10:24.549Z,2.13
2022-08-12T10:13:14.544Z,1.88
2022-08-12T10:16:02.552Z,1.92
2022-08-12T10:18:35.821Z,2.20
2022-08-12T10:21:14.412Z,1.80
2022-08-12T10:23:46.119Z,1.90
2022-08-12T10:26:39.027Z,2.08
2022-08-12T10:30:37.472Z,1.95
2022-08-12T10:32:43.698Z,1.90
2022-08-12T10:35:13.839Z,1.70
2022-08-12T10:38:34.604Z,1.70
2022-08-12T10:40:33.184Z,1.80
2022-08-12T10:43:20.700Z,1.70
2022-08-12T10:45:49.556Z,2.00
2022-08-12T10:48:26.869Z,1.75
2022-08-12T10:52:02.982Z,1.77
2022-08-12T10:54:00.361Z,1.98
2022-08-12T10:56:34.481Z,1.58
2022-08-12T10:59:05.280Z,1.92
2022-08-12T11:04:14.504Z,1.75
2022-08-12T11:04:39.432Z,2.00
2022-08-12T11:08:34.516Z,2.67
2022-08-12T11:10:01.420Z,1.95
2022-08-12T11:12:54.769Z,1.77
2022-08-12T11:15:32.762Z,1.88
2022-08-12T11:18:11.799Z,1.90
2022-08-12T11:20:45.248Z,2.08
2022-08-12T11:23:26.032Z,2.10
2022-08-12T11:26:05.487Z,1.98
2022-08-12T11:28:37.227Z,2.30
2022-08-12T11:31:09.722Z,1.95
2022-08-12T11:34:05.666Z,2.38
2022-08-12T11:36:28.634Z,2.20
2022-08-12T11:38:57.704Z,2.00
2022-08-12T11:41:30.879Z,2.40
2022-08-12T11:44:12.636Z,2.03
2022-08-12T11:46:52.700Z,2.10
2022-08-12T11:49:31.693Z,2.10
2022-08-12T11:52:03.630Z,1.90
2022-08-12T11:54:32.034Z,2.45
2022-08-12T11:57:02.953Z,1.83
2022-08-12T12:02:39.935Z,1.90
2022-08-12T12:05:08.111Z,1.83
2022-08-12T12:08:37.394Z,1.90
2022-08-12T12:10:26.830Z,1.90
2022-08-12T12:12:54.440Z,2.38
2022-08-12T12:15:25.368Z,2.08
2022-08-12T12:18:22.364Z,1.83
2022-08-12T12:21:02.370Z,2.20
2022-08-12T12:23:36.194Z,1.92
2022-08-12T12:26:09.896Z,2.15
2022-08-12T12:28:55.078Z,2.05
2022-08-12T12:32:11.219Z,1.92
2022-08-12T12:34:12.014Z,1.90
2022-08-12T12:36:58.809Z,1.70
2022-08-12T12:39:28.661Z,2.47
2022-08-12T12:42:43.158Z,2.28
2022-08-12T12:44:53.785Z,1.50
2022-08-12T12:47:29.187Z,1.80
2022-08-12T12:49:57.868Z,2.10
2022-08-12T12:52:26.927Z,1.92
2022-08-12T12:54:55.761Z,2.53
2022-08-12T12:57:59.215Z,1.90
2022-08-12T13:00:15.993Z,2.22
2022-08-12T13:05:29.129Z,2.05
2022-08-12T13:08:01.086Z,1.80
2022-08-12T13:10:32.190Z,2.10
2022-08-12T13:14:06.884Z,1.85
2022-08-12T13:15:59.286Z,2.42
2022-08-12T13:18:30.818Z,1.70
2022-08-12T13:20:59.631Z,1.98
2022-08-12T13:23:36.536Z,2.40
2022-08-12T13:26:05.278Z,1.90
2022-08-12T13:28:32.945Z,1.95
2022-08-12T13:31:01.357Z,1.80
2022-08-12T13:33:48.491Z,2.10
2022-08-12T13:36:18.900Z,2.20
2022-08-12T13:38:54.176Z,1.80
2022-08-12T13:41:35.610Z,1.75
2022-08-12T13:44:05.435Z,2.30
2022-08-12T13:46:33.110Z,1.90
2022-08-12T13:49:03.181Z,2.10
2022-08-12T13:51:41.053Z,2.30
2022-08-12T13:54:13.866Z,2.40
2022-08-12T13:56:41.856Z,1.73
2022-08-12T13:59:18.628Z,2.40
2022-08-12T14:01:54.405Z,1.85
2022-08-12T14:04:24.881Z,1.88
2022-08-12T14:06:54.168Z,2.20
2022-08-12T14:09:21.849Z,1.90
2022-08-12T14:11:59.486Z,1.95
2022-08-12T14:14:31.784Z,2.40
2022-08-12T14:17:10.595Z,2.55
2022-08-12T14:20:00.668Z,1.92
2022-08-12T14:22:28.892Z,2.00
2022-08-12T14:25:01.398Z,1.95
2022-08-12T14:28:04.441Z,2.13
2022-08-12T14:30:28.797Z,1.73
2022-08-12T14:32:56.819Z,1.83
2022-08-12T14:35:24.560Z,2.30
2022-08-12T14:37:57.511Z,1.83
2022-08-12T14:40:30.324Z,2.00
2022-08-12T14:42:59.264Z,1.90
2022-08-12T14:45:37.238Z,2.05
2022-08-12T14:48:18.507Z,2.13
2022-08-12T14:51:03.307Z,1.90
2022-08-12T14:59:57.331Z,2.22
2022-08-12T15:02:20.891Z,2.05
2022-08-12T15:05:03.605Z,1.98
2022-08-12T15:07:33.507Z,1.70
2022-08-12T15:10:31.742Z,2.08
2022-08-12T15:13:05.640Z,2.30
2022-08-12T15:15:43.702Z,2.65
2022-08-12T15:18:13.344Z,1.65
2022-08-12T15:20:41.500Z,2.30
2022-08-12T15:23:17.897Z,2.22
2022-08-12T15:25:49.913Z,2.53
2022-08-12T15:28:29.355Z,2.20
2022-08-12T15:31:00.811Z,2.42
2022-08-12T15:33:44.800Z,2.20
2022-08-12T15:36:13.841Z,1.92
2022-08-12T15:38:41.927Z,2.15
2022-08-12T15:41:14.648Z,1.70
2022-08-12T15:44:16.902Z,2.25
2022-08-12T15:46:32.369Z,2.00
2022-08-12T15:49:00.404Z,2.08
2022-08-12T15:51:57.336Z,2.00
2022-08-12T15:54:30.975Z,2.00
2022-08-12T15:57:08.125Z,2.05
2022-08-12T16:00:03.842Z,2.13
2022-08-12T16:02:29.307Z,2.15
2022-08-12T16:04:57.938Z,2.22
2022-08-12T16:07:31.141Z,2.15
2022-08-12T16:10:05.407Z,2.40
2022-08-12T16:12:39.737Z,2.30
2022-08-12T16:15:08.422Z,2.85
2022-08-12T16:18:14.451Z,3.08
2022-08-12T16:20:33.195Z,3.45
2022-08-12T16:23:04.257Z,3.70
2022-08-12T16:26:02.975Z,4.57
2022-08-12T16:28:22.647Z,4.63
2022-08-12T16:30:56.242Z,4.60
2022-08-12T16:33:35.755Z,4.32
2022-08-12T16:36:19.977Z,3.85
2022-08-12T16:38:48.466Z,3.75
2022-08-12T16:41:18.834Z,4.30
2022-08-12T16:43:46.726Z,4.00
2022-08-12T16:46:31.508Z,3.42
2022-08-12T16:49:08.658Z,3.60
2022-08-12T16:51:46.297Z,3.60
2022-08-12T16:54:26.719Z,3.92
2022-08-12T16:57:09.451Z,3.58
2022-08-12T16:59:54.243Z,3.60
2022-08-12T17:02:33.760Z,3.53
2022-08-12T17:05:04.573Z,3.45
2022-08-12T17:07:36.448Z,2.92
2022-08-12T17:10:08.529Z,4.03
2022-08-12T17:12:37.517Z,3.60
2022-08-12T17:15:51.390Z,3.55
2022-08-12T17:20:49.385Z,3.83
2022-08-12T17:23:18.069Z,3.83
2022-08-12T17:25:52.977Z,4.75
2022-08-12T17:28:22.641Z,3.33
2022-08-12T17:30:57.388Z,3.10
2022-08-12T17:33:33.537Z,3.97
2022-08-12T17:36:05.761Z,3.13
2022-08-12T17:38:36.389Z,3.38
2022-08-12T17:41:22.265Z,3.05
2022-08-12T17:43:58.572Z,3.25
2022-08-12T17:46:33.194Z,3.65
2022-08-12T17:49:19.182Z,4.43
2022-08-12T17:52:02.805Z,2.72
2022-08-12T17:54:31.094Z,3.25
2022-08-12T17:57:00.494Z,2.63
2022-08-12T17:59:47.722Z,2.63
2022-08-12T18:02:16.908Z,3.03
2022-08-12T18:05:03.182Z,2.97
2022-08-12T18:07:39.348Z,2.75
2022-08-12T18:10:08.441Z,2.85
2022-08-12T18:12:47.923Z,2.83
2022-08-12T18:15:27.042Z,4.32
2022-08-12T18:18:16.576Z,6.47
2022-08-12T18:20:45.259Z,3.95
2022-08-12T18:23:12.982Z,3.17
2022-08-12T18:26:15.609Z,2.80
2022-08-12T18:28:48.107Z,3.30
2022-08-12T18:31:17.253Z,3.80
2022-08-12T18:33:46.259Z,3.15
2022-08-12T18:36:14.738Z,3.97
2022-08-12T18:38:55.760Z,4.15
2022-08-12T18:41:33.678Z,5.38
2022-08-12T18:44:07.776Z,4.43
2022-08-12T18:46:46.761Z,3.33
2022-08-12T18:49:20.671Z,4.03
2022-08-12T18:52:02.511Z,5.13
2022-08-12T18:54:34.874Z,3.58
2022-08-12T18:57:04.966Z,3.60
2022-08-12T19:00:00.165Z,3.80
2022-08-12T19:02:23.078Z,3.95
2022-08-12T19:04:53.292Z,3.15
2022-08-12T19:07:22.752Z,3.42
2022-08-12T19:09:58.362Z,3.50
2022-08-12T19:12:47.591Z,3.13
2022-08-12T19:15:25.998Z,4.30
2022-08-12T19:18:00.952Z,3.80
2022-08-12T19:20:32.852Z,3.03
2022-08-12T19:23:16.432Z,3.23
2022-08-12T19:26:00.137Z,4.43
2022-08-12T19:28:35.301Z,3.30
2022-08-12T19:31:53.840Z,3.65
2022-08-12T19:37:22.649Z,3.05
2022-08-12T19:40:09.177Z,3.58
2022-08-12T19:42:44.779Z,3.88
2022-08-12T19:45:16.184Z,4.10
2022-08-12T19:47:45.956Z,3.45
2022-08-12T19:50:20.227Z,2.90
2022-08-12T19:52:50.889Z,3.30
2022-08-12T19:55:21.357Z,3.10
2022-08-12T19:58:02.742Z,3.40
2022-08-12T20:00:34.477Z,3.15
2022-08-12T20:03:04.286Z,3.50
2022-08-12T20:06:05.631Z,3.30
2022-08-12T20:08:31.273Z,3.28
2022-08-12T20:12:13.460Z,2.90
2022-08-12T20:14:01.310Z,3.47
2022-08-12T20:16:58.046Z,3.40
2022-08-12T20:19:28.502Z,2.97
2022-08-12T20:22:23.478Z,3.78
2022-08-12T20:24:55.154Z,2.95
2022-08-12T20:27:29.320Z,3.10
2022-08-12T20:30:14.787Z,2.90
2022-08-12T20:33:02.845Z,4.22
2022-08-12T20:36:06.833Z,3.33
2022-08-12T20:38:27.456Z,3.55
2022-08-12T20:40:56.160Z,3.00
2022-08-12T20:43:28.287Z,2.80
2022-08-12T20:45:58.848Z,2.90
2022-08-12T20:48:28.759Z,3.15
2022-08-12T20:51:03.929Z,2.45
2022-08-12T20:53:57.658Z,4.65
2022-08-12T20:56:30.983Z,3.33
2022-08-12T20:59:01.052Z,2.92
2022-08-12T21:01:47.203Z,2.55
2022-08-12T21:04:35.454Z,2.47
2022-08-12T21:07:09.632Z,2.72
2022-08-12T21:09:40.961Z,3.28
2022-08-12T21:12:31.573Z,2.53
2022-08-12T21:15:15.311Z,2.55
2022-08-12T21:18:08.217Z,2.70
2022-08-12T21:20:36.248Z,2.40
2022-08-12T21:23:06.089Z,2.05
2022-08-12T21:25:44.244Z,2.78
2022-08-12T21:28:13.215Z,2.58
2022-08-12T21:31:10.686Z,2.85
2022-08-12T21:33:58.803Z,2.75
2022-08-12T21:36:34.825Z,2.53
2022-08-12T21:39:18.544Z,2.88
2022-08-12T21:41:50.886Z,2.92
2022-08-12T21:44:23.941Z,3.35
2022-08-12T21:47:12.125Z,3.00
2022-08-12T21:49:53.912Z,2.95
2022-08-12T21:52:28.233Z,2.70
2022-08-12T21:55:03.515Z,3.20
2022-08-12T21:57:36.345Z,2.97
2022-08-12T22:00:16.832Z,3.15
2022-08-12T22:03:03.696Z,2.67
2022-08-12T22:05:49.957Z,2.65
2022-08-12T22:08:22.118Z,3.17
2022-08-12T22:10:56.558Z,3.40
2022-08-12T22:14:04.088Z,3.08
2022-08-12T22:16:13.896Z,3.13
2022-08-12T22:18:42.793Z,3.35
2022-08-12T22:21:22.032Z,3.10
2022-08-12T22:23:52.251Z,3.30
2022-08-12T22:29:26.704Z,3.08
2022-08-12T22:31:55.892Z,3.30
2022-08-12T22:34:29.228Z,3.60
2022-08-12T22:36:57.552Z,3.40
2022-08-12T22:39:26.445Z,3.10
2022-08-12T22:42:13.194Z,3.47
2022-08-12T22:45:06.085Z,3.33
2022-08-12T22:47:53.838Z,3.58
2022-08-12T22:50:28.918Z,3.08
2022-08-12T22:53:15.014Z,3.20
2022-08-12T22:56:00.450Z,3.17
2022-08-12T22:58:36.714Z,2.90
2022-08-12T23:01:10.720Z,3.50
2022-08-12T23:03:48.315Z,3.20
2022-08-12T23:06:17.502Z,3.15
2022-08-12T23:08:47.142Z,3.15
2022-08-12T23:11:17.980Z,2.65
2022-08-12T23:13:55.470Z,3.15
2022-08-12T23:16:30.841Z,3.00
2022-08-12T23:19:09.824Z,3.05
2022-08-12T23:22:05.649Z,3.20
2022-08-12T23:24:39.198Z,3.40
2022-08-12T23:27:43.949Z,3.38
2022-08-12T23:30:19.269Z,3.00
2022-08-12T23:32:54.836Z,3.25
2022-08-12T23:35:45.498Z,3.13
2022-08-12T23:38:31.032Z,3.00
2022-08-12T23:41:01.068Z,3.22
2022-08-12T23:43:39.868Z,2.60
2022-08-12T23:46:09.585Z,2.70
2022-08-12T23:48:38.091Z,3.00
2022-08-12T23:51:23.058Z,2.53
2022-08-12T23:53:54.972Z,2.95
2022-08-12T23:56:23.832Z,3.03
2022-08-12T23:58:57.559Z,2.83
